Airfield :
LOGIN :

Register | Disclaimer

   EN    FR    IT 

 










Legend :    VFR   Marginal VFR   IFR   Intensive IFR   Very Intensive IFR
Visi :
Ceiling :
>= 8 km
>= 3000ft
5 to 8 km
1000 to 3000 ft
1500m to 5 km
500 to 1000 ft
800 to 1500m
200 to 500 ft
< 800m
< 200 ft
Symbols :   Thunderstorms  Fog  Heavy snow  Heavy precipitations  Wind > 20 kt
SIGMETs :     Misc.  Thunderstorms  Icing  Turbulence  Mountain Waves  Volcanic Ashes






- Airport Elevation : 1521 ft
- IATA code : NCY


LFLP - Annecy

CURRENT METAR :
  • 251930Z AUTO VRB02KT 9999 BKN056 BKN080 11/10 Q1015

EXPIRED METARs :
  • 251900Z AUTO 02003KT 9999 BKN064 BKN080 11/10 Q1015 NOSIG
  • 251830Z AUTO VRB01KT 9999 SCT066 BKN080 11/10 Q1015 NOSIG
  • 251800Z AUTO VRB02KT 9999 SCT064 OVC078 12/10 Q1014 NOSIG
  • 251730Z AUTO VRB01KT 9999 BKN060 OVC074 12/10 Q1014 NOSIG
  • 251700Z AUTO 04005KT 9999 BKN066/// OVC076/// ///TCU 12/10 Q1014 TEMPO SHRA BECMG BKN050

TAF TAF LFLP
Valid from the 25 at 15:00 until the 26 at 15:00 UTC


251400Z 2515/2615 VRB03KT 9999 BKN050
TEMPO 2515/2518 SHRA SCT030TCU
TEMPO 2601/2607 BKN012
BECMG 2610/2612 SCT040



MET'MAP, your aeronautical weather chart ! - Copyright ORBIFLY December 2007 - Disclaimer

ORBIFLY MET'MAP TEAM :

Programming & Development : Alexandra Zaïnal
Original concept : Baudouin d'Aumeries
Technical & hardware support : Manuel Goepfert
Assistance : Marc-Olivier Méhu




SOURCES & CREDITS :

   NOAA